Time;durP1;ratioP1;P1;durP2;ratioP2;P2;SDS_P1;SDS_P2;PMS_P1;PMS_P2;Temp;Humidity;BMP_temperature;BMP_pressure;BME280_temperature;BME280_humidity;BME280_pressure;Samples;Min_cycle;Max_cycle;Signal;HPM_P1;HPM_P2
2022/02/17 08:47:44;;;;;;;9.70;7.22;;;;;;;;;;6176671;23;20032;-84
2022/02/17 08:50:10;;;;;;;8.60;6.07;;;;;;;;;;6185513;23;20009;-87
2022/02/17 08:52:37;;;;;;;9.55;6.88;;;;;;;;;;6185842;23;20132;-86
2022/02/17 08:55:04;;;;;;;7.82;6.28;;;;;;;;;;6185824;23;20001;-84
2022/02/17 08:57:29;;;;;;;6.57;5.45;;;;;;;;;;6185730;23;20355;-83
2022/02/17 09:48:56;;;;;;;7.50;6.22;;;;;;;;;;6165231;23;20014;-88
2022/02/17 09:51:25;;;;;;;5.47;4.97;;;;;;;;;;6157459;23;20016;-89
2022/02/17 09:53:51;;;;;;;6.20;4.68;;;;;;;;;;6131161;23;20010;-86
2022/02/17 09:56:18;;;;;;;4.45;3.97;;;;;;;;;;6131066;23;20033;-88
2022/02/17 09:58:44;;;;;;;6.18;4.88;;;;;;;;;;6157472;23;20013;-82
2022/02/17 10:01:16;;;;;;;5.30;4.47;;;;;;;;;;6157276;23;20328;-89
2022/02/17 10:03:42;;;;;;;5.45;4.45;;;;;;;;;;6157104;23;20001;-82
2022/02/17 10:06:12;;;;;;;5.45;4.95;;;;;;;;;;6157225;23;20053;-90
2022/02/17 10:08:38;;;;;;;;;;;;;;;;;;6157637;23;20093;-89
2022/02/17 10:11:04;;;;;;;7.60;4.25;;;;;;;;;;6157334;23;19936;-89
2022/02/17 10:13:31;;;;;;;5.47;4.75;;;;;;;;;;6157362;23;20002;-89
2022/02/17 10:15:58;;;;;;;6.75;5.22;;;;;;;;;;6157041;23;20005;-89
2022/02/17 10:18:30;;;;;;;5.55;4.60;;;;;;;;;;6157318;23;20014;-82
2022/02/17 10:21:08;;;;;;;6.13;5.45;;;;;;;;;;6157287;23;20053;-88
2022/02/17 10:23:40;;;;;;;5.50;4.85;;;;;;;;;;6157001;23;20100;-88
2022/02/17 10:26:10;;;;;;;5.95;5.35;;;;;;;;;;6157123;23;20006;-88
2022/02/17 10:28:44;;;;;;;8.48;7.50;;;;;;;;;;6156991;23;20016;-89
2022/02/17 10:31:32;;;;;;;8.65;7.15;;;;;;;;;;6131186;23;20006;-86
2022/02/17 10:34:01;;;;;;;8.73;7.45;;;;;;;;;;6156935;23;20005;-86
2022/02/17 10:36:40;;;;;;;7.65;6.80;;;;;;;;;;6130999;23;20036;-86
2022/02/17 10:39:20;;;;;;;7.43;6.57;;;;;;;;;;6156834;23;20080;-85
2022/02/17 10:41:49;;;;;;;;;;;;;;;;;;6157186;23;20056;-84
2022/02/17 10:44:15;;;;;;;;;;;;;;;;;;6157222;23;20036;-89
2022/02/17 10:46:41;;;;;;;7.85;7.05;;;;;;;;;;6156997;23;19908;-83
2022/02/17 10:49:18;;;;;;;9.55;7.93;;;;;;;;;;6148599;23;20025;-82
2022/02/17 10:51:45;;;;;;;8.13;7.30;;;;;;;;;;6156670;23;20425;-82
2022/02/17 10:54:11;;;;;;;7.90;7.15;;;;;;;;;;6156965;23;20080;-88
2022/02/17 10:56:40;;;;;;;9.82;7.55;;;;;;;;;;6157155;23;20056;-89
2022/02/17 11:00:00;;;;;;;9.15;7.78;;;;;;;;;;6156783;23;20088;-89
2022/02/17 11:01:57;;;;;;;10.85;8.23;;;;;;;;;;6156546;23;20008;-87
2022/02/17 11:04:24;;;;;;;8.25;7.38;;;;;;;;;;6156791;23;20060;-82
2022/02/17 11:06:51;;;;;;;8.27;7.22;;;;;;;;;;6156753;23;19998;-88
2022/02/17 11:09:18;;;;;;;9.43;8.20;;;;;;;;;;6155108;23;20005;-89
2022/02/17 11:11:44;;;;;;;7.85;7.15;;;;;;;;;;6156851;23;20084;-89
2022/02/17 11:14:09;;;;;;;8.80;7.90;;;;;;;;;;6157052;23;20009;-85
2022/02/17 11:16:39;;;;;;;8.15;7.32;;;;;;;;;;6154955;23;20439;-86
2022/02/17 11:19:05;;;;;;;12.15;10.85;;;;;;;;;;6154745;23;20014;-88
2022/02/17 11:21:30;;;;;;;11.68;10.48;;;;;;;;;;6156957;23;20093;-81
2022/02/17 11:24:02;;;;;;;10.75;9.63;;;;;;;;;;6156370;23;20002;-82
2022/02/17 11:26:31;;;;;;;13.57;10.88;;;;;;;;;;6156600;23;20010;-80
2022/02/17 11:29:23;;;;;;;12.40;11.20;;;;;;;;;;6156109;23;20068;-87
2022/02/17 11:31:59;;;;;;;13.23;11.63;;;;;;;;;;6154739;23;20452;-84
2022/02/17 11:34:44;;;;;;;12.90;11.43;;;;;;;;;;6156441;23;20365;-86
2022/02/17 11:37:32;;;;;;;14.98;12.23;;;;;;;;;;6156934;23;20006;-86
2022/02/17 11:40:02;;;;;;;15.10;13.25;;;;;;;;;;6156375;23;20077;-86
2022/02/17 11:42:32;;;;;;;14.80;13.20;;;;;;;;;;6156301;23;20025;-85
2022/02/17 11:45:15;;;;;;;19.23;16.00;;;;;;;;;;6156396;23;20029;-86
2022/02/17 11:48:06;;;;;;;19.10;16.60;;;;;;;;;;6156188;23;20013;-86
2022/02/17 11:51:09;;;;;;;19.70;16.20;;;;;;;;;;6156400;23;20005;-86
2022/02/17 11:53:36;;;;;;;20.02;16.88;;;;;;;;;;6156072;23;20322;-82
2022/02/17 11:56:17;;;;;;;19.13;17.05;;;;;;;;;;6156937;23;20024;-85
2022/02/17 11:58:47;;;;;;;19.88;17.05;;;;;;;;;;6156611;23;20136;-84
2022/02/17 12:01:22;;;;;;;20.80;17.98;;;;;;;;;;6157294;23;20006;-95
2022/02/17 12:04:14;;;;;;;21.42;17.85;;;;;;;;;;6130087;23;20013;-87
2022/02/17 12:06:46;;;;;;;23.33;19.30;;;;;;;;;;6156148;23;20052;-87
2022/02/17 12:09:30;;;;;;;19.67;17.58;;;;;;;;;;6156204;23;20009;-87
2022/02/17 12:12:35;;;;;;;21.67;18.15;;;;;;;;;;6156071;23;20006;-87
2022/02/17 12:15:03;;;;;;;22.75;18.05;;;;;;;;;;6156421;23;20006;-88
2022/02/17 12:17:36;;;;;;;26.15;19.52;;;;;;;;;;6156568;23;20068;-82
2022/02/17 12:20:21;;;;;;;23.70;18.70;;;;;;;;;;6156204;23;20063;-83
2022/02/17 12:22:52;;;;;;;22.48;19.02;;;;;;;;;;6156205;23;20005;-83
2022/02/17 12:25:22;;;;;;;24.30;20.08;;;;;;;;;;6129870;23;20065;-82
2022/02/17 12:27:52;;;;;;;24.92;20.15;;;;;;;;;;6156244;23;20479;-88
2022/02/17 12:30:22;;;;;;;;;;;;;;;;;;6156464;23;20021;-83
2022/02/17 12:33:00;;;;;;;24.25;19.52;;;;;;;;;;6156036;23;19908;-89
2022/02/17 12:35:25;;;;;;;23.17;19.27;;;;;;;;;;6156089;23;20005;-85
2022/02/17 12:38:04;;;;;;;23.70;20.17;;;;;;;;;;6156137;23;20045;-87
2022/02/17 12:40:30;;;;;;;22.40;18.40;;;;;;;;;;6130520;23;20009;-84
2022/02/17 12:42:55;;;;;;;23.73;19.23;;;;;;;;;;6131748;23;20037;-88
2022/02/17 12:45:39;;;;;;;21.65;18.38;;;;;;;;;;6158132;23;20013;-88
2022/02/17 12:48:05;;;;;;;21.58;17.85;;;;;;;;;;6157792;23;20021;-84
2022/02/17 17:43:30;;;;;;;33.53;24.10;;;;;;;;;;6195798;23;20048;-84
2022/02/17 17:45:55;;;;;;;48.28;37.42;;;;;;;;;;6160611;23;20318;-85
2022/02/17 17:48:20;;;;;;;57.33;47.67;;;;;;;;;;6185949;23;20005;-83
2022/02/17 17:50:48;;;;;;;41.10;33.63;;;;;;;;;;6155091;23;20012;-84
2022/02/17 17:53:14;;;;;;;29.50;23.63;;;;;;;;;;6155492;23;20431;-84
2022/02/17 17:55:43;;;;;;;35.03;25.98;;;;;;;;;;6156608;23;20005;-84
2022/02/17 17:58:11;;;;;;;37.50;24.00;;;;;;;;;;6157039;23;20061;-84
2022/02/17 18:00:37;;;;;;;29.23;20.98;;;;;;;;;;6156895;23;20424;-84
2022/02/17 18:03:03;;;;;;;29.10;21.35;;;;;;;;;;6156887;23;20044;-83
2022/02/17 18:05:29;;;;;;;34.33;25.10;;;;;;;;;;6157010;23;20082;-84
2022/02/17 18:07:55;;;;;;;29.95;21.00;;;;;;;;;;6157069;23;20001;-83
2022/02/17 18:10:21;;;;;;;31.50;21.58;;;;;;;;;;6155499;23;20096;-85
2022/02/17 18:12:46;;;;;;;31.50;24.00;;;;;;;;;;6156830;23;20025;-84
2022/02/17 18:15:12;;;;;;;32.60;24.17;;;;;;;;;;6156744;23;20025;-84
2022/02/17 18:17:38;;;;;;;37.97;26.63;;;;;;;;;;6130474;23;20013;-84
2022/02/17 18:20:05;;;;;;;37.88;25.45;;;;;;;;;;6156669;23;20428;-85
2022/02/17 18:22:31;;;;;;;34.65;26.02;;;;;;;;;;6156849;23;20314;-85
2022/02/17 18:24:58;;;;;;;37.13;27.10;;;;;;;;;;6156695;23;20006;-83
2022/02/17 18:27:24;;;;;;;34.95;25.60;;;;;;;;;;6156716;23;20010;-88
2022/02/17 18:29:49;;;;;;;43.20;29.02;;;;;;;;;;6156689;23;20013;-88
2022/02/17 18:32:15;;;;;;;38.50;27.45;;;;;;;;;;6157171;23;20325;-88
2022/02/17 18:34:41;;;;;;;41.13;26.60;;;;;;;;;;6156914;23;20006;-88
2022/02/17 18:37:06;;;;;;;36.50;25.65;;;;;;;;;;6156506;23;20036;-88
2022/02/17 18:39:31;;;;;;;48.30;31.20;;;;;;;;;;6156594;23;20059;-86
2022/02/17 18:41:57;;;;;;;37.20;27.58;;;;;;;;;;6156974;23;20009;-86
2022/02/17 18:47:09;;;;;;;36.78;27.10;;;;;;;;;;6156702;23;20341;-87
2022/02/17 18:49:35;;;;;;;34.53;26.27;;;;;;;;;;6156891;23;20434;-87
2022/02/17 18:52:03;;;;;;;33.38;23.67;;;;;;;;;;6156710;23;20005;-85
2022/02/17 18:54:28;;;;;;;35.97;24.70;;;;;;;;;;6156700;23;20005;-86
2022/02/17 18:56:54;;;;;;;32.08;23.42;;;;;;;;;;6154963;23;20479;-89
2022/02/17 18:59:20;;;;;;;32.92;24.20;;;;;;;;;;6156557;23;20377;-89
2022/02/17 19:01:46;;;;;;;36.92;25.55;;;;;;;;;;6155476;23;20006;-89
2022/02/17 19:04:12;;;;;;;31.85;22.50;;;;;;;;;;6154942;23;20386;-89
2022/02/17 19:06:37;;;;;;;33.15;22.15;;;;;;;;;;6155271;23;20056;-88
2022/02/17 19:09:03;;;;;;;33.55;24.10;;;;;;;;;;6155115;23;20016;-89
2022/02/17 19:11:29;;;;;;;34.78;23.85;;;;;;;;;;6155248;23;20429;-89
2022/02/17 19:13:56;;;;;;;35.38;23.77;;;;;;;;;;6154901;23;20009;-89
2022/02/17 19:16:22;;;;;;;36.80;22.75;;;;;;;;;;6155162;23;20096;-86
2022/02/17 19:18:48;;;;;;;35.47;25.65;;;;;;;;;;6156432;23;20314;-87
2022/02/17 19:21:13;;;;;;;36.30;24.67;;;;;;;;;;6156554;23;20056;-87
2022/02/17 19:23:39;;;;;;;35.67;25.45;;;;;;;;;;6156543;23;20097;-88
2022/02/17 19:26:05;;;;;;;76.32;37.38;;;;;;;;;;6155324;23;20341;-88
2022/02/17 19:28:30;;;;;;;62.05;35.28;;;;;;;;;;6155009;23;20013;-87
2022/02/17 19:30:56;;;;;;;41.28;26.08;;;;;;;;;;6154805;23;20449;-88
2022/02/17 19:33:22;;;;;;;37.03;25.77;;;;;;;;;;6156555;23;20001;-87
2022/02/17 19:35:47;;;;;;;41.17;26.00;;;;;;;;;;6155223;23;20093;-88
2022/02/17 19:38:15;;;;;;;40.03;26.00;;;;;;;;;;6154882;23;20002;-88
2022/02/17 19:40:40;;;;;;;38.55;24.83;;;;;;;;;;6156238;23;20164;-88
2022/02/17 19:43:06;;;;;;;42.53;26.77;;;;;;;;;;6154682;23;20117;-88
2022/02/17 19:45:32;;;;;;;36.22;25.73;;;;;;;;;;6154863;23;20009;-88
2022/02/17 19:48:00;;;;;;;31.85;21.85;;;;;;;;;;6154794;23;20020;-88
2022/02/17 19:50:25;;;;;;;37.42;26.48;;;;;;;;;;6154270;23;20067;-88
2022/02/17 19:52:51;;;;;;;35.08;25.55;;;;;;;;;;6156351;23;20436;-88
2022/02/17 19:55:16;;;;;;;33.50;23.27;;;;;;;;;;6154814;23;20369;-88
2022/02/17 19:57:42;;;;;;;34.95;23.73;;;;;;;;;;6156050;23;20369;-88
2022/02/17 20:00:10;;;;;;;28.52;18.50;;;;;;;;;;6154607;23;20006;-88
2022/02/17 20:02:44;;;;;;;28.23;19.35;;;;;;;;;;6154737;23;20013;-88
2022/02/17 20:05:09;;;;;;;36.15;24.45;;;;;;;;;;6154771;23;20381;-88
2022/02/17 20:07:37;;;;;;;33.08;22.60;;;;;;;;;;6156139;23;20136;-88
2022/02/17 20:10:03;;;;;;;32.63;22.33;;;;;;;;;;6156177;23;20068;-88
2022/02/17 20:12:29;;;;;;;25.98;18.25;;;;;;;;;;6154563;23;20306;-88
2022/02/17 20:14:56;;;;;;;29.80;20.92;;;;;;;;;;6156635;23;20060;-88
2022/02/17 20:17:23;;;;;;;44.55;27.88;;;;;;;;;;6156387;23;20060;-88
2022/02/17 20:19:49;;;;;;;33.42;22.70;;;;;;;;;;6154964;23;20377;-88
2022/02/17 20:22:14;;;;;;;25.20;16.55;;;;;;;;;;6154680;23;20089;-88
2022/02/17 20:24:39;;;;;;;29.52;20.38;;;;;;;;;;6179260;23;20433;-88
2022/02/17 20:27:05;;;;;;;31.02;21.67;;;;;;;;;;6156100;23;20072;-88
2022/02/17 20:29:30;;;;;;;33.22;22.73;;;;;;;;;;6156186;23;20010;-88
2022/02/17 20:31:57;;;;;;;35.80;23.63;;;;;;;;;;6154744;23;20009;-88
2022/02/17 20:34:23;;;;;;;35.80;24.13;;;;;;;;;;6154592;23;20009;-87
2022/02/17 20:36:55;;;;;;;30.48;20.98;;;;;;;;;;6154531;23;19998;-88
2022/02/17 20:39:21;;;;;;;32.90;22.95;;;;;;;;;;6156085;23;20006;-88
2022/02/17 20:41:46;;;;;;;36.80;25.17;;;;;;;;;;6156568;23;20421;-88
2022/02/17 20:52:24;;;;;;;33.25;22.85;;;;;;;;;;6155960;23;20437;-88
2022/02/17 20:54:49;;;;;;;39.22;27.10;;;;;;;;;;6156056;23;20002;-88
2022/02/17 20:57:15;;;;;;;36.45;25.92;;;;;;;;;;6154437;23;20016;-87
2022/02/17 20:59:40;;;;;;;36.47;24.80;;;;;;;;;;6154397;23;20009;-88
2022/02/17 21:02:07;;;;;;;31.08;21.92;;;;;;;;;;6155262;23;20040;-88
2022/02/17 21:04:33;;;;;;;39.10;24.25;;;;;;;;;;6157911;23;20049;-88
2022/02/17 21:06:58;;;;;;;35.88;24.48;;;;;;;;;;6156249;23;20009;-87
2022/02/17 21:09:24;;;;;;;37.78;23.90;;;;;;;;;;6157608;23;20017;-87
2022/02/17 21:11:52;;;;;;;32.10;21.98;;;;;;;;;;6156077;23;20104;-88
2022/02/17 21:14:21;;;;;;;27.83;20.35;;;;;;;;;;6158039;23;20002;-87
2022/02/17 21:16:48;;;;;;;30.45;21.42;;;;;;;;;;6156173;23;20036;-88
2022/02/17 21:19:14;;;;;;;28.17;20.00;;;;;;;;;;6180693;23;20444;-88
2022/02/17 21:21:40;;;;;;;29.75;21.13;;;;;;;;;;6158028;23;20002;-88
2022/02/17 21:24:05;;;;;;;30.20;20.48;;;;;;;;;;6157765;23;20433;-88
2022/02/17 21:26:33;;;;;;;26.80;18.52;;;;;;;;;;6157376;23;20020;-88
2022/02/17 21:29:00;;;;;;;23.05;16.98;;;;;;;;;;6157590;23;20060;-89
2022/02/17 21:31:25;;;;;;;26.52;18.15;;;;;;;;;;6157625;23;20029;-88
2022/02/17 21:33:52;;;;;;;24.95;17.02;;;;;;;;;;6157892;23;20008;-88
2022/02/17 21:36:19;;;;;;;56.75;37.05;;;;;;;;;;6157576;23;20325;-89
2022/02/17 21:38:46;;;;;;;28.98;20.40;;;;;;;;;;6157683;23;20017;-89
2022/02/17 21:41:11;;;;;;;37.17;23.63;;;;;;;;;;6156088;23;20455;-89
2022/02/17 21:43:39;;;;;;;93.68;45.08;;;;;;;;;;6155874;23;20010;-89
2022/02/17 21:46:08;;;;;;;59.92;32.83;;;;;;;;;;6157300;23;20421;-87
2022/02/17 21:48:38;;;;;;;56.75;30.23;;;;;;;;;;6158067;23;20080;-90
2022/02/17 21:51:04;;;;;;;34.70;22.17;;;;;;;;;;6156042;23;20009;-89
2022/02/17 21:53:30;;;;;;;32.78;22.23;;;;;;;;;;6155978;23;20008;-89
2022/02/17 21:55:57;;;;;;;37.78;23.17;;;;;;;;;;6155684;23;20045;-88
2022/02/17 21:58:22;;;;;;;54.22;28.13;;;;;;;;;;6180525;23;20005;-88
2022/02/17 22:00:48;;;;;;;56.30;28.75;;;;;;;;;;6157294;23;20040;-88
2022/02/17 22:03:15;;;;;;;34.72;22.42;;;;;;;;;;6157373;23;20056;-89
2022/02/17 22:05:41;;;;;;;32.20;21.20;;;;;;;;;;6155642;23;20881;-89
2022/02/17 22:08:07;;;;;;;31.08;20.73;;;;;;;;;;6180608;23;20012;-89
2022/02/17 22:10:32;;;;;;;34.92;23.20;;;;;;;;;;6157299;23;20369;-88
2022/02/17 22:12:58;;;;;;;35.22;24.17;;;;;;;;;;6156785;23;20010;-89
2022/02/17 22:15:23;;;;;;;40.53;27.60;;;;;;;;;;6157215;23;20081;-88
2022/02/17 22:17:49;;;;;;;37.80;25.60;;;;;;;;;;6155623;23;20010;-88
2022/02/17 22:20:16;;;;;;;39.03;27.00;;;;;;;;;;6180352;23;20010;-90
2022/02/17 22:22:42;;;;;;;36.05;24.70;;;;;;;;;;6157094;23;20005;-89
2022/02/17 22:25:09;;;;;;;37.47;25.40;;;;;;;;;;6157257;23;20449;-89
2022/02/17 22:27:35;;;;;;;38.00;26.35;;;;;;;;;;6157047;23;20428;-89
2022/02/17 22:30:02;;;;;;;35.38;24.65;;;;;;;;;;6155604;23;20016;-88
2022/02/17 22:32:27;;;;;;;38.30;24.52;;;;;;;;;;6156923;23;20001;-88
2022/02/17 22:34:52;;;;;;;28.10;19.45;;;;;;;;;;6157057;23;20009;-87
2022/02/17 22:37:18;;;;;;;26.13;17.23;;;;;;;;;;6157031;23;20005;-89
2022/02/17 22:39:44;;;;;;;32.80;21.45;;;;;;;;;;6155363;23;20029;-88
2022/02/17 22:42:10;;;;;;;25.02;16.50;;;;;;;;;;6155270;23;20017;-90
2022/02/17 22:44:35;;;;;;;16.27;10.13;;;;;;;;;;6157031;23;20321;-87
2022/02/17 22:47:02;;;;;;;15.88;10.23;;;;;;;;;;6157119;23;20009;-86
2022/02/17 22:49:27;;;;;;;19.42;12.93;;;;;;;;;;6155490;23;20029;-88
2022/02/17 22:51:55;;;;;;;23.17;15.15;;;;;;;;;;6155341;23;20009;-88
2022/02/17 22:54:20;;;;;;;27.52;18.52;;;;;;;;;;6155432;23;20337;-88
2022/02/17 22:56:46;;;;;;;24.02;17.00;;;;;;;;;;6180520;23;20207;-89
2022/02/17 22:59:11;;;;;;;21.52;15.15;;;;;;;;;;6155049;23;20063;-89
